createdAt,value
2019-05-20T06:18:19.897Z,28.50
2019-05-20T06:20:50.244Z,26.67
2019-05-20T06:23:18.595Z,25.50
2019-05-20T06:28:25.293Z,30.90
2019-05-20T06:30:53.694Z,27.00
2019-05-20T06:33:22.041Z,24.63
2019-05-20T06:35:50.447Z,27.60
2019-05-20T06:40:57.083Z,31.15
2019-05-20T06:43:27.408Z,33.13
2019-05-20T06:45:55.791Z,29.10
2019-05-20T06:48:24.153Z,31.60
2019-05-20T06:50:52.546Z,30.92
2019-05-20T06:53:25.015Z,31.98
2019-05-20T06:55:53.387Z,27.13
2019-05-20T06:58:28.174Z,27.87
2019-05-20T07:00:56.542Z,26.10
2019-05-20T07:03:48.389Z,24.20
2019-05-20T07:06:44.681Z,25.97
2019-05-20T07:08:57.283Z,25.67
2019-05-20T07:11:25.670Z,23.40
2019-05-20T07:13:54.081Z,25.23
2019-05-20T07:18:56.733Z,29.37
2019-05-20T07:21:26.055Z,27.13
2019-05-20T07:23:54.416Z,25.93
2019-05-20T07:26:32.611Z,23.57
2019-05-20T07:29:00.972Z,24.30
2019-05-20T07:31:29.365Z,22.20
2019-05-20T07:33:57.731Z,22.03
2019-05-20T07:37:02.040Z,22.60
2019-05-20T07:39:34.381Z,20.00
2019-05-20T07:42:02.739Z,21.63
2019-05-20T07:44:31.096Z,21.07
2019-05-20T07:46:59.525Z,19.57
2019-05-20T07:49:29.781Z,21.43
2019-05-20T07:51:58.229Z,19.07
2019-05-20T07:54:29.670Z,25.20
2019-05-20T07:56:58.033Z,21.30
2019-05-20T07:59:47.340Z,19.37
2019-05-20T08:02:25.721Z,19.57
2019-05-20T08:04:54.135Z,18.77
2019-05-20T08:07:30.054Z,19.00
2019-05-20T08:09:55.915Z,17.43
2019-05-20T08:12:27.609Z,19.23
2019-05-20T08:15:15.430Z,18.50
2019-05-20T08:17:43.796Z,17.20
2019-05-20T08:20:13.166Z,19.27
2019-05-20T08:28:09.433Z,20.12
2019-05-20T08:30:37.807Z,18.33
2019-05-20T08:33:08.031Z,19.20
2019-05-20T08:35:44.062Z,20.02
2019-05-20T08:38:14.448Z,19.13
2019-05-20T08:40:48.115Z,18.40
2019-05-20T08:43:19.544Z,16.70
2019-05-20T08:48:49.612Z,20.35
2019-05-20T08:51:18.035Z,18.80
2019-05-20T08:54:00.414Z,21.87
2019-05-20T08:59:06.067Z,20.60
2019-05-20T09:01:36.321Z,17.73
2019-05-20T09:04:05.597Z,18.53
2019-05-20T09:06:47.918Z,20.77
2019-05-20T09:09:17.206Z,19.00
2019-05-20T09:11:59.189Z,18.80
2019-05-20T09:14:27.697Z,18.20
2019-05-20T09:19:47.383Z,20.40
2019-05-20T09:22:15.297Z,19.77
2019-05-20T09:24:43.889Z,18.57
2019-05-20T09:27:12.087Z,22.45
2019-05-20T09:29:40.473Z,22.27
2019-05-20T09:32:08.850Z,21.17
2019-05-20T09:34:38.114Z,18.97
2019-05-20T09:37:06.462Z,20.73
2019-05-20T09:39:36.739Z,24.67
2019-05-20T09:42:05.130Z,21.70
2019-05-20T09:47:07.774Z,24.70
2019-05-20T09:49:42.173Z,21.67
2019-05-20T09:52:10.545Z,20.40
2019-05-20T09:54:39.841Z,19.50
2019-05-20T09:57:08.204Z,19.00
2019-05-20T09:59:55.462Z,19.67
2019-05-20T10:02:32.825Z,19.17
2019-05-20T10:04:52.202Z,20.23
2019-05-20T10:07:20.562Z,17.80
2019-05-20T10:10:05.521Z,22.85
2019-05-20T10:12:46.003Z,19.67
2019-05-20T10:15:05.770Z,17.83
2019-05-20T10:17:37.632Z,17.97
2019-05-20T10:20:06.016Z,16.63
2019-05-20T10:25:11.620Z,16.30
2019-05-20T10:27:39.993Z,16.62
2019-05-20T10:30:08.385Z,15.32
2019-05-20T10:32:51.890Z,15.70
2019-05-20T10:35:20.251Z,13.53
2019-05-20T10:37:49.513Z,14.27
2019-05-20T10:40:17.862Z,13.50
2019-05-20T10:43:05.139Z,12.53
2019-05-20T10:48:08.891Z,14.70
2019-05-20T10:50:36.096Z,16.03
2019-05-20T10:53:04.460Z,16.80
2019-05-20T10:55:32.840Z,15.93
2019-05-20T10:58:02.085Z,15.63
2019-05-20T11:00:31.368Z,18.17
2019-05-20T11:05:38.976Z,22.87
2019-05-20T11:08:26.014Z,23.07
2019-05-20T11:10:55.302Z,21.97
2019-05-20T11:13:27.094Z,22.47
2019-05-20T11:15:55.470Z,22.63
2019-05-20T11:18:23.833Z,22.10
2019-05-20T11:23:31.886Z,25.15
2019-05-20T11:26:06.507Z,20.30
2019-05-20T11:28:34.816Z,22.47
2019-05-20T11:31:10.862Z,21.07
2019-05-20T11:33:40.162Z,19.63
2019-05-20T11:36:13.602Z,22.37
2019-05-20T11:38:42.077Z,19.20
2019-05-20T11:41:11.331Z,20.30
2019-05-20T11:46:16.007Z,22.93
2019-05-20T11:51:21.715Z,23.03
2019-05-20T11:53:50.070Z,21.27
2019-05-20T11:56:19.359Z,18.33
2019-05-20T11:58:47.705Z,20.53
2019-05-20T12:01:16.106Z,19.07
2019-05-20T12:03:49.747Z,18.87
2019-05-20T12:06:18.693Z,19.20
2019-05-20T12:08:47.550Z,17.97
2019-05-20T12:11:15.922Z,18.77
2019-05-20T12:13:59.295Z,20.13
2019-05-20T12:16:27.655Z,20.50
2019-05-20T12:18:56.038Z,20.43
2019-05-20T12:21:24.393Z,19.73
2019-05-20T12:23:52.746Z,17.80
2019-05-20T12:26:22.757Z,17.47
2019-05-20T12:28:51.403Z,16.87
2019-05-20T12:31:19.806Z,16.47
2019-05-20T12:33:48.140Z,17.63
2019-05-20T12:36:16.527Z,15.17
2019-05-20T12:38:46.786Z,15.60
2019-05-20T12:41:15.176Z,17.30
2019-05-20T12:43:44.932Z,15.43
2019-05-20T12:48:54.289Z,18.80
2019-05-20T12:51:22.654Z,17.50
2019-05-20T12:53:52.948Z,15.85
2019-05-20T12:56:26.905Z,14.02
2019-05-20T13:04:18.141Z,11.93
2019-05-20T13:06:46.529Z,10.10
2019-05-20T13:09:18.447Z,10.33
2019-05-20T13:11:47.757Z,7.47
2019-05-20T13:14:17.034Z,7.70
2019-05-20T13:16:45.808Z,6.53
2019-05-20T13:19:19.315Z,8.57
2019-05-20T13:21:47.678Z,7.03
2019-05-20T13:24:17.942Z,6.33
2019-05-20T13:26:46.345Z,5.40
2019-05-20T13:29:16.622Z,5.77
2019-05-20T13:31:45.021Z,5.73
2019-05-20T13:34:18.805Z,6.60
2019-05-20T13:36:46.888Z,7.60
2019-05-20T13:39:34.584Z,10.00
2019-05-20T13:42:07.287Z,12.33
2019-05-20T21:58:58.593Z,8.60
2019-05-20T22:01:27.095Z,7.80
2019-05-20T22:04:00.037Z,7.47
2019-05-20T22:06:28.410Z,8.27
2019-05-20T22:08:57.717Z,8.87
2019-05-20T22:11:26.090Z,10.40
2019-05-20T22:13:54.463Z,12.10
2019-05-20T22:16:22.836Z,12.60
2019-05-20T22:18:51.180Z,13.30
2019-05-20T22:21:20.460Z,17.25
2019-05-20T22:23:51.646Z,16.97
2019-05-20T22:26:20.952Z,16.07
2019-05-20T22:28:50.221Z,17.57
2019-05-20T22:33:53.718Z,24.20
2019-05-20T22:36:23.084Z,22.77
2019-05-20T22:38:51.450Z,22.27
2019-05-20T22:41:20.768Z,24.50
2019-05-20T22:43:49.145Z,23.47
2019-05-20T22:46:17.512Z,22.80
2019-05-20T22:48:45.948Z,22.40
2019-05-20T22:51:17.665Z,19.40
2019-05-20T22:53:49.215Z,20.30
2019-05-20T22:56:17.641Z,18.10
2019-05-20T22:58:46.066Z,19.00
2019-05-20T23:01:15.299Z,17.93
2019-05-20T23:03:56.335Z,18.10
2019-05-20T23:06:18.214Z,16.47
2019-05-20T23:08:48.512Z,15.10
2019-05-20T23:11:26.893Z,14.10
2019-05-20T23:13:55.257Z,13.97
2019-05-20T23:16:23.612Z,14.33
2019-05-20T23:18:51.973Z,16.98
2019-05-20T23:23:54.578Z,16.30
2019-05-20T23:26:22.983Z,15.00
2019-05-20T23:28:51.388Z,13.60
2019-05-20T23:31:20.323Z,14.87
2019-05-20T23:33:48.681Z,14.13
2019-05-20T23:36:19.032Z,13.03
2019-05-20T23:38:47.401Z,15.20
2019-05-20T23:41:15.757Z,12.80
2019-05-20T23:43:44.155Z,13.27
2019-05-20T23:46:12.724Z,14.33
2019-05-20T23:48:41.994Z,16.10
2019-05-20T23:51:12.329Z,12.77
2019-05-20T23:53:42.667Z,11.23
2019-05-20T23:56:11.039Z,11.17
2019-05-20T23:58:39.431Z,11.53
